Main page
METAR-TAF:

METAR-TAF

Airports :

Panama Pacifico, Panama

latitude: 08-55N, longitude: 079-36W, elevation: 16 m

Current weather observation

The report was made 3 hours and 15 minutes ago, at 13:00 UTC
Calm wind
Temperature 26°C
Humidity 84%
Pressure 1014 hPa
Visibility 10 km or more
Scattered clouds at a height of 1800 ft

METAR: MPPA 221300Z 00000KT 9999 SCT018 26/23 Q1014

Time: 11:15 (16:15 UTC)

Forecast

The report was made 5 hours and 15 minutes ago, at 11:00 UTC
Forecast valid from 22 at 12 UTC to 23 at 18 UTC
Wind 6 kt from the North/Northwest
Visibility 10 km or more
Scattered clouds at a height of 1800 ft
Scattered clouds at a height of 9000 ft
Probability 30% :
Temporary
from 22 at 16 UTC to 22 at 20 UTC
Visibility: 6000 m
Scattered clouds at a height of 1600 ft, Cumulonimbus.
Broken clouds at a height of 8000 ft
rain
Temporary
from 22 at 23 UTC to 23 at 03 UTC
Wind kt from the North

TAF: MPPA 221100Z 2212/2318 34006KT 9999 SCT018 SCT090 PROB30 TEMPO 2216/2220 6000 RA SCT016CB BKN080 TEMPO 2223/2303 00000KT

Weather observations and forecasts of more than 4000 airports (METAR and TAF reports).

The available stations are represented by yellow and red dots on the map.

Hover mouse over dot to see the name of the station.

Then click to see weather observations and forecasts.

To change the map : click on the green buttons with a black cross to zoom in, on the green button with a dash to zoom out, or on the green arrows for adjacent maps.


METAR-TAF: